Time;durP1;ratioP1;P1;durP2;ratioP2;P2;SDS_P1;SDS_P2;PMS_P1;PMS_P2;Temp;Humidity;BMP_temperature;BMP_pressure;BME280_temperature;BME280_humidity;BME280_pressure;Samples;Min_cycle;Max_cycle;Signal;HPM_P1;HPM_P2
2023/05/30 00:01:41;;;;;;;12.13;11.43;;;14.80;60.80;;;;;;4810367;29;20193;-48
2023/05/30 00:04:07;;;;;;;12.90;12.17;;;14.80;61.70;;;;;;4810873;29;20450;-46
2023/05/30 00:06:33;;;;;;;12.23;11.63;;;14.80;63.40;;;;;;4811352;29;20455;-56
2023/05/30 00:09:00;;;;;;;13.13;12.37;;;14.70;64.90;;;;;;4810558;29;20917;-50
2023/05/30 00:11:28;;;;;;;12.83;12.10;;;14.70;65.50;;;;;;4811508;29;20442;-52
2023/05/30 00:13:55;;;;;;;13.87;12.97;;;14.70;68.20;;;;;;4810623;29;20811;-51
2023/05/30 00:16:22;;;;;;;13.13;12.33;;;14.60;72.50;;;;;;4811024;29;20447;-49
2023/05/30 00:18:48;;;;;;;12.00;11.30;;;14.50;72.70;;;;;;4810045;29;20570;-50
2023/05/30 00:21:17;;;;;;;12.87;12.07;;;14.50;72.90;;;;;;4811337;29;20575;-46
2023/05/30 00:23:44;;;;;;;12.17;11.47;;;14.40;75.20;;;;;;4811149;29;20554;-53
2023/05/30 00:26:10;;;;;;;13.03;12.13;;;14.40;77.30;;;;;;4811502;29;20521;-54
2023/05/30 00:28:37;;;;;;;13.10;12.30;;;14.30;79.80;;;;;;4810186;29;21016;-48
2023/05/30 00:31:02;;;;;;;13.00;12.23;;;14.30;80.20;;;;;;4810504;29;20482;-49
2023/05/30 00:33:28;;;;;;;12.73;11.93;;;14.20;80.60;;;;;;4810623;29;20533;-47
2023/05/30 00:35:54;;;;;;;13.17;12.37;;;14.20;84.60;;;;;;4810981;29;20727;-49
2023/05/30 00:38:20;;;;;;;12.60;11.90;;;14.10;85.70;;;;;;4809852;29;20625;-48
2023/05/30 00:40:45;;;;;;;13.30;12.40;;;14.00;88.90;;;;;;4811136;29;20221;-51
2023/05/30 00:43:11;;;;;;;12.73;11.90;;;14.00;90.60;;;;;;4807592;29;20518;-50
2023/05/30 00:45:37;;;;;;;12.83;12.13;;;13.90;91.20;;;;;;4809066;29;20202;-51
2023/05/30 00:48:04;;;;;;;12.53;11.73;;;13.80;92.10;;;;;;4809535;29;20301;-49
2023/05/30 00:50:30;;;;;;;12.90;12.10;;;13.80;92.50;;;;;;4809962;29;20654;-52
2023/05/30 00:52:57;;;;;;;12.63;11.93;;;13.80;93.70;;;;;;4810524;29;20445;-49
2023/05/30 00:55:23;;;;;;;12.63;11.83;;;13.70;94.30;;;;;;4809440;29;20455;-45
2023/05/30 00:57:49;;;;;;;12.93;12.13;;;13.60;95.30;;;;;;4810845;29;20999;-49
2023/05/30 01:00:17;;;;;;;12.93;12.03;;;13.60;95.50;;;;;;4810643;29;20879;-49
2023/05/30 01:02:44;;;;;;;12.60;11.90;;;13.50;95.70;;;;;;4810809;29;20466;-45
2023/05/30 01:05:12;;;;;;;13.13;12.33;;;13.50;96.00;;;;;;4809215;29;20447;-48
2023/05/30 01:07:41;;;;;;;12.93;12.13;;;13.50;96.20;;;;;;4808917;29;21093;-49
2023/05/30 01:10:07;;;;;;;12.63;11.87;;;13.40;96.00;;;;;;4810553;29;20562;-47
2023/05/30 01:12:37;;;;;;;12.97;12.17;;;13.50;94.60;;;;;;4810581;29;20459;-50
2023/05/30 01:15:05;;;;;;;13.30;12.40;;;13.50;96.50;;;;;;4810974;29;20927;-50
2023/05/30 01:17:38;;;;;;;13.83;12.73;;;13.50;97.20;;;;;;4808087;29;20569;-48
2023/05/30 01:20:10;;;;;;;13.10;12.30;;;13.50;96.90;;;;;;4810611;29;20565;-50
2023/05/30 01:22:56;;;;;;;12.70;12.00;;;13.50;96.80;;;;;;4809568;29;20510;-49
2023/05/30 01:25:35;;;;;;;12.60;11.90;;;13.50;97.50;;;;;;4809647;29;20867;-54
2023/05/30 01:28:20;;;;;;;13.30;12.50;;;13.40;96.70;;;;;;4810228;29;20534;-49
2023/05/30 01:30:48;;;;;;;12.83;12.00;;;13.40;97.60;;;;;;4809852;29;20454;-48
2023/05/30 01:33:14;;;;;;;13.50;12.60;;;13.30;97.60;;;;;;4810391;29;20949;-50
2023/05/30 01:35:46;;;;;;;12.77;12.10;;;13.30;97.60;;;;;;4810199;29;20450;-51
2023/05/30 01:38:13;;;;;;;13.70;12.70;;;13.20;97.60;;;;;;4807956;29;20953;-51
2023/05/30 01:40:42;;;;;;;12.50;11.70;;;13.20;97.40;;;;;;4809914;29;20443;-50
2023/05/30 01:43:20;;;;;;;13.33;12.27;;;13.20;97.50;;;;;;4810509;29;20631;-47
2023/05/30 01:46:11;;;;;;;12.57;11.97;;;13.10;98.30;;;;;;4809692;29;21128;-43
2023/05/30 01:48:53;;;;;;;12.93;12.23;;;13.10;98.60;;;;;;4809892;29;20525;-49
2023/05/30 01:51:36;;;;;;;13.17;12.27;;;13.00;99.00;;;;;;4810616;29;20752;-53
2023/05/30 01:54:05;;;;;;;12.57;11.80;;;12.90;99.40;;;;;;4805606;29;20537;-54
2023/05/30 01:56:32;;;;;;;12.63;11.90;;;12.90;99.60;;;;;;4809521;29;21098;-50
2023/05/30 01:59:02;;;;;;;13.03;12.03;;;12.80;99.90;;;;;;4809692;29;20545;-52
2023/05/30 02:01:29;;;;;;;13.00;12.20;;;12.70;99.90;;;;;;4811118;29;20458;-49
2023/05/30 02:03:55;;;;;;;12.53;11.67;;;12.70;99.90;;;;;;4810635;29;20520;-51
2023/05/30 02:06:22;;;;;;;12.50;11.80;;;12.60;99.90;;;;;;4808797;29;20859;-49
2023/05/30 02:08:48;;;;;;;12.97;12.17;;;12.60;99.90;;;;;;4810707;29;21191;-45
2023/05/30 02:11:14;;;;;;;12.30;11.57;;;12.50;99.90;;;;;;4810332;29;20446;-50
2023/05/30 02:13:40;;;;;;;12.93;12.23;;;12.50;99.90;;;;;;4809599;29;20462;-51
2023/05/30 02:16:06;;;;;;;12.10;11.40;;;12.40;99.90;;;;;;4809975;29;20958;-51
2023/05/30 02:18:34;;;;;;;11.70;11.10;;;12.40;99.90;;;;;;4812834;29;20661;-53
2023/05/30 02:20:59;;;;;;;12.83;11.93;;;12.30;99.90;;;;;;4813544;29;20427;-53
2023/05/30 02:23:25;;;;;;;12.90;12.07;;;12.20;99.90;;;;;;4813129;29;20498;-50
2023/05/30 02:25:51;;;;;;;12.37;11.67;;;12.20;99.90;;;;;;4813710;29;20280;-52
2023/05/30 02:28:17;;;;;;;12.53;11.83;;;12.10;99.90;;;;;;4813249;29;20868;-51
2023/05/30 02:30:42;;;;;;;13.13;12.43;;;12.10;99.90;;;;;;4811522;29;20455;-49
2023/05/30 02:33:08;;;;;;;13.33;12.47;;;12.10;99.90;;;;;;4812155;29;20197;-54
2023/05/30 02:35:33;;;;;;;13.70;12.77;;;12.00;99.90;;;;;;4811013;29;20214;-52
2023/05/30 02:37:59;;;;;;;13.30;12.53;;;12.00;99.90;;;;;;4812116;29;20580;-48
2023/05/30 02:40:25;;;;;;;13.30;12.50;;;11.90;99.90;;;;;;4811864;29;20194;-47
2023/05/30 02:42:50;;;;;;;13.60;12.73;;;11.90;99.90;;;;;;4812147;29;20205;-46
2023/05/30 02:45:16;;;;;;;13.50;12.70;;;11.90;99.90;;;;;;4813066;29;20565;-50
2023/05/30 02:47:42;;;;;;;13.70;12.90;;;11.90;99.90;;;;;;4812568;29;20197;-48
2023/05/30 02:50:08;;;;;;;13.47;12.70;;;11.90;99.90;;;;;;4810929;29;20289;-46
2023/05/30 02:52:33;;;;;;;12.40;11.70;;;11.90;99.90;;;;;;4812832;29;20253;-50
2023/05/30 02:54:59;;;;;;;12.80;11.97;;;11.90;99.90;;;;;;4811447;29;20471;-49
2023/05/30 02:57:25;;;;;;;12.80;12.00;;;11.90;99.90;;;;;;4812157;29;20229;-49
2023/05/30 02:59:51;;;;;;;12.60;11.80;;;11.90;99.90;;;;;;4809766;29;20597;-53
2023/05/30 03:02:16;;;;;;;13.47;12.50;;;11.80;99.90;;;;;;4810390;29;20377;-52
2023/05/30 03:04:46;;;;;;;12.83;12.00;;;11.80;99.90;;;;;;4811781;29;20284;-50
2023/05/30 03:07:18;;;;;;;14.23;13.03;;;11.80;99.90;;;;;;4812636;29;20193;-49
2023/05/30 03:09:44;;;;;;;12.87;11.97;;;11.80;99.90;;;;;;4811413;29;20438;-53
2023/05/30 03:12:10;;;;;;;13.30;12.47;;;11.70;99.90;;;;;;4812157;29;20516;-53
2023/05/30 03:14:36;;;;;;;12.70;12.00;;;11.70;99.90;;;;;;4812018;29;20455;-47
2023/05/30 03:17:03;;;;;;;12.30;11.50;;;11.70;99.90;;;;;;4812026;29;20221;-49
2023/05/30 03:19:28;;;;;;;12.80;12.10;;;11.70;99.90;;;;;;4811251;29;20280;-46
2023/05/30 03:21:55;;;;;;;13.20;12.50;;;11.70;99.90;;;;;;4811203;29;20488;-51
2023/05/30 03:24:23;;;;;;;13.93;12.93;;;11.70;99.90;;;;;;4811175;29;20639;-49
2023/05/30 03:26:49;;;;;;;13.30;12.47;;;11.70;99.90;;;;;;4810468;29;20446;-46
2023/05/30 03:29:14;;;;;;;13.23;12.43;;;11.60;99.90;;;;;;4811275;29;20443;-52
2023/05/30 03:31:40;;;;;;;13.20;12.40;;;11.70;99.90;;;;;;4812599;29;20450;-49
2023/05/30 03:34:06;;;;;;;12.17;11.33;;;11.70;99.90;;;;;;4811111;29;20190;-48
2023/05/30 03:36:31;;;;;;;12.70;11.77;;;11.70;99.90;;;;;;4812822;29;20697;-49
2023/05/30 03:38:57;;;;;;;12.60;11.90;;;11.70;99.90;;;;;;4810084;29;20573;-48
2023/05/30 03:41:23;;;;;;;12.37;11.33;;;11.80;99.90;;;;;;4812457;29;20193;-48
2023/05/30 03:43:49;;;;;;;14.07;12.40;;;11.80;99.90;;;;;;4812256;29;20771;-48
2023/05/30 03:46:16;;;;;;;12.80;12.10;;;11.90;99.90;;;;;;4811692;29;20435;-47
2023/05/30 03:48:42;;;;;;;12.73;11.93;;;11.90;99.90;;;;;;4811520;29;20539;-49
2023/05/30 03:51:08;;;;;;;12.10;11.40;;;12.00;99.90;;;;;;4812320;29;20427;-53
2023/05/30 03:53:33;;;;;;;13.27;12.40;;;12.00;99.90;;;;;;4811763;29;20811;-51
2023/05/30 03:55:59;;;;;;;12.10;11.20;;;12.10;99.90;;;;;;4812166;29;20202;-51
2023/05/30 03:58:25;;;;;;;12.60;11.80;;;12.10;99.90;;;;;;4811437;29;20471;-48
2023/05/30 04:00:50;;;;;;;12.37;11.70;;;12.20;99.90;;;;;;4811661;29;20467;-47
2023/05/30 04:03:19;;;;;;;11.70;11.00;;;12.20;99.90;;;;;;4811960;29;20193;-50
2023/05/30 04:05:47;;;;;;;11.73;11.00;;;12.30;99.90;;;;;;4812088;29;20266;-49
2023/05/30 04:08:12;;;;;;;13.00;12.20;;;12.30;99.90;;;;;;4810569;29;20435;-51
2023/05/30 04:10:38;;;;;;;11.20;10.50;;;12.40;99.90;;;;;;4811190;29;20461;-45
2023/05/30 04:13:04;;;;;;;12.50;11.47;;;12.40;99.90;;;;;;4811085;29;20451;-50
2023/05/30 04:15:29;;;;;;;12.67;11.87;;;12.50;99.90;;;;;;4808437;29;20206;-51
2023/05/30 04:17:57;;;;;;;12.10;11.37;;;12.50;99.90;;;;;;4811003;29;20241;-49
2023/05/30 04:20:23;;;;;;;12.27;11.57;;;12.50;99.90;;;;;;4791836;29;20186;-50
2023/05/30 04:22:49;;;;;;;12.50;11.60;;;12.50;99.90;;;;;;4810578;29;20833;-54
2023/05/30 04:25:16;;;;;;;12.33;11.63;;;12.60;99.90;;;;;;4810755;29;20485;-49
2023/05/30 04:27:43;;;;;;;12.50;11.70;;;12.70;99.90;;;;;;4811282;29;20197;-43
2023/05/30 04:30:10;;;;;;;13.03;12.07;;;12.70;99.90;;;;;;4811264;29;21116;-49
2023/05/30 04:32:35;;;;;;;12.03;11.30;;;12.80;99.90;;;;;;4811588;29;20540;-47
2023/05/30 04:35:05;;;;;;;12.13;11.40;;;12.90;99.90;;;;;;4811439;29;20447;-52
2023/05/30 04:37:33;;;;;;;12.00;11.20;;;13.10;99.90;;;;;;4811297;29;20232;-51
2023/05/30 04:39:59;;;;;;;12.10;11.30;;;13.10;99.90;;;;;;4811246;29;20528;-50
2023/05/30 04:42:26;;;;;;;12.20;11.40;;;13.20;99.90;;;;;;4811163;29;20443;-52
2023/05/30 04:44:54;;;;;;;12.40;11.27;;;13.30;99.90;;;;;;4810338;29;20446;-52
2023/05/30 04:47:23;;;;;;;11.03;10.33;;;13.30;99.90;;;;;;4810760;29;20615;-54
2023/05/30 04:49:53;;;;;;;12.53;11.63;;;13.40;99.90;;;;;;4794491;29;20542;-50
2023/05/30 04:52:19;;;;;;;10.80;10.20;;;13.50;99.90;;;;;;4811505;29;20427;-49
2023/05/30 04:54:45;;;;;;;11.87;11.17;;;13.50;99.80;;;;;;4811390;29;20780;-52
2023/05/30 04:57:12;;;;;;;10.10;9.50;;;13.60;99.80;;;;;;4811309;29;20477;-49
2023/05/30 04:59:39;;;;;;;9.93;9.30;;;13.60;99.30;;;;;;4811082;29;20406;-51
2023/05/30 05:02:05;;;;;;;12.13;11.33;;;13.60;99.20;;;;;;4809535;29;20589;-52
2023/05/30 05:04:30;;;;;;;11.73;11.10;;;13.70;99.40;;;;;;4810593;29;20533;-50
2023/05/30 05:06:57;;;;;;;11.40;10.80;;;13.70;99.30;;;;;;4811339;29;20774;-46
2023/05/30 05:09:24;;;;;;;11.13;10.10;;;13.70;99.50;;;;;;4810067;29;20197;-47
2023/05/30 05:11:50;;;;;;;10.93;10.33;;;13.70;99.10;;;;;;4810732;29;20522;-49
2023/05/30 05:14:16;;;;;;;11.47;10.87;;;13.70;98.00;;;;;;4809207;29;20508;-51
2023/05/30 05:16:42;;;;;;;10.57;9.87;;;13.70;98.40;;;;;;4811152;29;20918;-52
2023/05/30 05:19:07;;;;;;;11.57;10.77;;;13.60;98.40;;;;;;4810830;29;20435;-45
2023/05/30 05:21:33;;;;;;;10.70;10.10;;;13.60;98.70;;;;;;4811257;29;20201;-53
2023/05/30 05:23:59;;;;;;;10.33;9.83;;;13.60;97.80;;;;;;4811677;29;20201;-47
2023/05/30 05:26:24;;;;;;;11.40;10.60;;;13.60;96.90;;;;;;4810906;29;20533;-51
2023/05/30 05:28:50;;;;;;;10.40;9.80;;;13.60;96.80;;;;;;4811025;29;20872;-49
2023/05/30 05:31:16;;;;;;;12.23;11.43;;;13.60;97.20;;;;;;4811095;29;20205;-54
2023/05/30 05:33:42;;;;;;;10.33;9.83;;;13.60;97.00;;;;;;4811269;29;20427;-50
2023/05/30 05:36:08;;;;;;;11.83;11.13;;;13.60;97.20;;;;;;4811046;29;20787;-47
2023/05/30 05:38:33;;;;;;;11.53;10.73;;;13.60;96.90;;;;;;4810234;29;20228;-49
2023/05/30 05:40:59;;;;;;;11.60;10.80;;;13.60;96.40;;;;;;4810026;29;20254;-52
2023/05/30 05:43:25;;;;;;;11.23;10.20;;;13.60;97.30;;;;;;4810780;29;20906;-54
2023/05/30 05:45:51;;;;;;;10.93;10.33;;;13.70;97.00;;;;;;4809185;29;20277;-51
2023/05/30 05:48:17;;;;;;;11.57;10.73;;;13.80;96.20;;;;;;4811217;29;20217;-51
2023/05/30 05:50:43;;;;;;;11.30;10.50;;;13.80;95.40;;;;;;4810780;29;20542;-50
2023/05/30 05:53:08;;;;;;;11.93;11.20;;;13.70;95.30;;;;;;4813895;29;20212;-54
2023/05/30 05:55:34;;;;;;;11.73;10.90;;;13.80;95.70;;;;;;4813980;29;20206;-51
2023/05/30 05:58:00;;;;;;;12.40;11.60;;;13.80;95.70;;;;;;4813735;29;20218;-52
2023/05/30 06:00:25;;;;;;;12.23;11.53;;;13.80;95.50;;;;;;4813502;29;20542;-51
2023/05/30 06:02:51;;;;;;;13.47;12.37;;;13.80;95.00;;;;;;4813941;29;20202;-47
2023/05/30 06:05:16;;;;;;;12.40;11.40;;;13.90;94.30;;;;;;4814291;29;20288;-45
2023/05/30 06:07:42;;;;;;;11.63;11.03;;;13.90;95.30;;;;;;4813127;29;21010;-48
2023/05/30 06:10:09;;;;;;;11.70;11.03;;;13.90;95.10;;;;;;4813534;29;20210;-42
2023/05/30 06:12:34;;;;;;;12.57;11.77;;;14.00;94.20;;;;;;4813400;29;20293;-43
2023/05/30 06:15:00;;;;;;;12.30;11.50;;;14.10;93.90;;;;;;4813856;29;20447;-42
2023/05/30 06:17:25;;;;;;;11.77;11.27;;;14.10;94.60;;;;;;4811887;29;20229;-45
2023/05/30 06:19:51;;;;;;;11.67;11.07;;;14.20;94.00;;;;;;4813481;29;20201;-46
2023/05/30 06:22:17;;;;;;;12.07;11.27;;;14.30;93.40;;;;;;4813412;29;20249;-47
2023/05/30 06:24:42;;;;;;;11.30;10.70;;;14.30;92.90;;;;;;4813231;29;20554;-46
2023/05/30 06:27:08;;;;;;;11.43;10.67;;;14.30;91.90;;;;;;4813750;29;20281;-44
2023/05/30 06:29:37;;;;;;;10.63;10.03;;;14.40;92.90;;;;;;4813330;29;20293;-45
2023/05/30 06:32:03;;;;;;;10.90;10.40;;;14.40;89.90;;;;;;4813604;29;20353;-50
2023/05/30 06:34:28;;;;;;;11.30;10.60;;;14.50;90.40;;;;;;4813567;29;20433;-42
2023/05/30 06:36:54;;;;;;;11.87;11.27;;;14.60;89.70;;;;;;4812750;29;20853;-45
2023/05/30 06:39:19;;;;;;;10.90;10.40;;;14.70;88.70;;;;;;4810553;29;20269;-44
2023/05/30 06:41:45;;;;;;;11.27;10.77;;;14.70;86.90;;;;;;4812722;29;20221;-44
2023/05/30 06:44:11;;;;;;;10.57;10.07;;;14.80;86.00;;;;;;4813073;29;20242;-42
2023/05/30 06:46:37;;;;;;;11.80;10.80;;;14.90;81.30;;;;;;4813152;29;20200;-44
2023/05/30 06:49:03;;;;;;;10.77;10.10;;;15.00;79.70;;;;;;4813471;29;20449;-45
2023/05/30 06:51:29;;;;;;;11.00;10.50;;;15.20;76.60;;;;;;4813333;29;20528;-43
2023/05/30 06:53:55;;;;;;;10.87;10.37;;;15.40;75.50;;;;;;4812939;29;20446;-46
2023/05/30 06:56:20;;;;;;;11.43;10.83;;;15.50;73.70;;;;;;4812885;29;20649;-45
2023/05/30 06:58:46;;;;;;;9.73;9.07;;;15.60;73.30;;;;;;4812976;29;20531;-42
2023/05/30 07:01:12;;;;;;;9.83;9.27;;;15.70;72.80;;;;;;4812973;29;20190;-44
2023/05/30 07:03:37;;;;;;;10.30;9.80;;;15.80;72.40;;;;;;4811957;29;20641;-47
2023/05/30 07:06:03;;;;;;;10.03;9.43;;;15.90;71.20;;;;;;4813234;29;20243;-41
2023/05/30 07:08:29;;;;;;;10.30;9.90;;;16.00;69.20;;;;;;4811782;29;20217;-43
2023/05/30 07:10:55;;;;;;;10.63;10.13;;;16.10;65.50;;;;;;4812997;29;20435;-51
2023/05/30 07:13:20;;;;;;;11.53;10.83;;;16.20;65.40;;;;;;4812799;29;20622;-44
2023/05/30 07:15:47;;;;;;;10.83;10.33;;;16.30;65.30;;;;;;4812904;29;20434;-44
2023/05/30 07:18:12;;;;;;;9.97;9.57;;;16.40;61.30;;;;;;4812626;29;20214;-42
2023/05/30 07:20:38;;;;;;;9.57;9.17;;;16.40;58.60;;;;;;4812848;29;20450;-42
2023/05/30 07:23:04;;;;;;;9.93;9.43;;;16.50;56.60;;;;;;4812509;29;20479;-46
2023/05/30 07:25:30;;;;;;;10.13;9.63;;;16.60;55.60;;;;;;4812552;29;20190;-43
2023/05/30 07:27:56;;;;;;;9.77;9.37;;;16.70;55.10;;;;;;4812623;29;20809;-40
2023/05/30 07:30:21;;;;;;;10.10;9.60;;;16.80;54.40;;;;;;4812395;29;20186;-42
2023/05/30 07:32:47;;;;;;;9.97;9.57;;;16.80;53.60;;;;;;4812293;29;20893;-42
2023/05/30 07:35:13;;;;;;;10.40;9.90;;;16.90;52.80;;;;;;4812739;29;20269;-44
2023/05/30 07:37:38;;;;;;;9.63;9.23;;;17.00;52.20;;;;;;4810980;29;20570;-43
2023/05/30 07:40:05;;;;;;;8.97;8.57;;;17.00;50.70;;;;;;4810498;29;20277;-50
2023/05/30 07:42:31;;;;;;;10.50;10.00;;;17.00;50.70;;;;;;4812251;29;20190;-44
2023/05/30 07:44:57;;;;;;;10.20;9.80;;;17.20;49.30;;;;;;4812068;29;20636;-43
2023/05/30 07:47:22;;;;;;;10.17;9.77;;;17.30;48.40;;;;;;4812567;29;20805;-46
2023/05/30 07:49:48;;;;;;;10.27;9.80;;;17.30;48.40;;;;;;4811245;29;20206;-43
2023/05/30 07:52:15;;;;;;;10.10;9.70;;;17.40;46.90;;;;;;4812139;29;20226;-46
2023/05/30 07:54:40;;;;;;;9.90;9.50;;;17.50;46.70;;;;;;4811041;29;20194;-49
2023/05/30 07:57:06;;;;;;;10.60;10.00;;;17.50;46.10;;;;;;4812240;29;20855;-48
2023/05/30 07:59:32;;;;;;;10.33;9.87;;;17.60;47.90;;;;;;4812425;29;20193;-49
2023/05/30 08:01:58;;;;;;;10.20;9.70;;;17.70;46.00;;;;;;4811955;29;20687;-48
2023/05/30 08:04:23;;;;;;;10.87;10.37;;;17.80;45.50;;;;;;4812195;29;20522;-44
2023/05/30 08:06:49;;;;;;;10.23;9.80;;;17.90;45.40;;;;;;4811715;29;20671;-44
2023/05/30 08:09:16;;;;;;;10.27;9.80;;;18.00;44.40;;;;;;4812032;29;20185;-42
2023/05/30 08:11:41;;;;;;;10.40;9.83;;;18.00;44.80;;;;;;4812180;29;20220;-46
2023/05/30 08:14:07;;;;;;;10.20;9.80;;;18.10;45.20;;;;;;4810908;29;20447;-42
2023/05/30 08:16:33;;;;;;;10.60;10.10;;;18.10;45.90;;;;;;4812433;29;20186;-45
2023/05/30 08:18:58;;;;;;;10.37;9.87;;;18.30;45.80;;;;;;4811817;29;20662;-43
2023/05/30 08:21:24;;;;;;;10.73;10.20;;;18.50;45.10;;;;;;4811844;29;20186;-43
2023/05/30 08:23:49;;;;;;;10.20;9.63;;;18.60;45.20;;;;;;4811816;29;20651;-46
2023/05/30 08:26:16;;;;;;;10.87;10.37;;;18.70;45.40;;;;;;4811548;29;20196;-47
2023/05/30 08:28:42;;;;;;;10.27;9.57;;;18.80;45.00;;;;;;4811705;29;20210;-46
2023/05/30 08:31:08;;;;;;;10.80;10.30;;;18.80;44.70;;;;;;4810782;29;20531;-49
2023/05/30 08:33:35;;;;;;;10.83;10.13;;;18.90;46.30;;;;;;4811609;29;20259;-46
2023/05/30 08:36:01;;;;;;;11.00;10.50;;;19.10;45.20;;;;;;4811561;29;20556;-46
2023/05/30 08:38:26;;;;;;;10.90;10.40;;;19.20;45.10;;;;;;4811586;29;20476;-44
2023/05/30 08:40:53;;;;;;;10.87;10.37;;;19.40;45.10;;;;;;4811929;29;20186;-44
2023/05/30 08:43:19;;;;;;;9.90;9.50;;;19.50;44.40;;;;;;4811914;29;20733;-42
2023/05/30 08:45:45;;;;;;;10.70;10.10;;;19.60;44.10;;;;;;4811672;29;20423;-44
2023/05/30 08:48:15;;;;;;;11.00;10.20;;;19.70;44.20;;;;;;4811774;29;20739;-43
2023/05/30 08:50:41;;;;;;;10.33;9.93;;;19.90;44.40;;;;;;4809978;29;20451;-44
2023/05/30 08:53:08;;;;;;;11.00;10.40;;;20.10;43.60;;;;;;4811411;29;21021;-42
2023/05/30 08:56:15;;;;;;;11.17;10.57;;;20.30;43.00;;;;;;4811116;29;20439;-47
2023/05/30 08:58:43;;;;;;;10.37;9.77;;;20.40;42.30;;;;;;4811216;29;20470;-43
2023/05/30 09:01:10;;;;;;;10.70;10.10;;;20.60;42.40;;;;;;4810177;29;20439;-41
2023/05/30 09:03:42;;;;;;;10.30;9.70;;;20.80;42.60;;;;;;4811354;29;20431;-46
2023/05/30 09:06:08;;;;;;;9.93;9.53;;;20.90;41.60;;;;;;4811179;29;20431;-43
2023/05/30 09:08:36;;;;;;;11.43;10.80;;;21.20;41.90;;;;;;4811426;29;20916;-43
2023/05/30 09:11:03;;;;;;;10.53;9.93;;;21.40;41.80;;;;;;4811231;29;20449;-44
2023/05/30 09:13:28;;;;;;;9.70;9.20;;;21.80;40.70;;;;;;4811210;29;20518;-47
2023/05/30 09:15:54;;;;;;;10.87;10.37;;;22.00;39.60;;;;;;4811254;29;20437;-43
2023/05/30 09:18:20;;;;;;;11.00;10.50;;;22.50;37.80;;;;;;4810812;29;20241;-46
2023/05/30 09:20:46;;;;;;;10.40;10.00;;;22.90;36.80;;;;;;4811216;29;20540;-46
2023/05/30 09:23:12;;;;;;;9.60;9.20;;;23.20;36.70;;;;;;4810768;29;20522;-43
2023/05/30 09:25:43;;;;;;;10.87;10.40;;;23.60;34.40;;;;;;4811105;29;20257;-45
2023/05/30 09:28:09;;;;;;;11.00;10.50;;;24.00;34.50;;;;;;4813731;29;20772;-42
2023/05/30 09:30:37;;;;;;;10.77;10.27;;;24.50;35.10;;;;;;4814211;29;20715;-45
2023/05/30 09:33:03;;;;;;;10.40;9.80;;;25.00;32.70;;;;;;4814570;29;20797;-48
2023/05/30 09:35:29;;;;;;;10.73;10.23;;;25.40;30.30;;;;;;4814212;29;20467;-42
2023/05/30 09:37:55;;;;;;;10.87;10.27;;;25.90;29.70;;;;;;4814229;29;20620;-44
2023/05/30 09:40:23;;;;;;;11.13;10.53;;;26.10;28.40;;;;;;4814313;29;20431;-49
2023/05/30 09:42:51;;;;;;;11.00;10.40;;;26.50;27.10;;;;;;4814026;29;20190;-45
2023/05/30 09:45:20;;;;;;;11.53;10.93;;;26.70;24.30;;;;;;4814145;29;20719;-43
2023/05/30 09:47:47;;;;;;;10.67;10.17;;;27.00;25.20;;;;;;4813971;29;20427;-48
2023/05/30 09:50:15;;;;;;;10.90;10.43;;;27.50;25.40;;;;;;4814127;29;20779;-47
2023/05/30 09:52:42;;;;;;;10.33;9.83;;;27.80;23.30;;;;;;4814237;29;20576;-53
2023/05/30 09:55:09;;;;;;;10.23;9.73;;;28.20;21.10;;;;;;4813740;29;20437;-51
2023/05/30 09:57:39;;;;;;;9.53;9.03;;;28.10;21.10;;;;;;4813871;29;20477;-49
2023/05/30 10:00:10;;;;;;;10.13;9.63;;;28.20;20.80;;;;;;4813464;29;20415;-50
2023/05/30 10:02:40;;;;;;;10.40;10.00;;;28.40;20.30;;;;;;4812787;29;20455;-46
2023/05/30 10:05:17;;;;;;;10.27;9.73;;;28.60;21.10;;;;;;4814033;29;20427;-47
2023/05/30 10:07:43;;;;;;;10.90;10.50;;;28.80;20.70;;;;;;4813496;29;20452;-48
2023/05/30 10:10:09;;;;;;;9.63;9.23;;;29.30;19.80;;;;;;4812573;29;20439;-48
2023/05/30 10:12:35;;;;;;;10.70;10.20;;;29.60;18.90;;;;;;4813691;29;20206;-44
2023/05/30 10:15:01;;;;;;;10.80;10.40;;;30.00;18.90;;;;;;4813801;29;20204;-42
2023/05/30 10:17:32;;;;;;;10.13;9.47;;;30.50;18.80;;;;;;4814060;29;20475;-46
2023/05/30 10:20:07;;;;;;;9.60;9.20;;;30.80;17.10;;;;;;4814150;29;20190;-47
2023/05/30 10:22:40;;;;;;;9.87;9.17;;;30.70;17.00;;;;;;4794164;29;20482;-43
2023/05/30 10:25:08;;;;;;;10.77;10.17;;;30.80;16.90;;;;;;4795705;29;20927;-45
2023/05/30 10:27:42;;;;;;;8.97;8.57;;;30.80;16.40;;;;;;4794235;29;20513;-43
2023/05/30 10:30:11;;;;;;;10.37;9.63;;;30.90;16.40;;;;;;4795389;29;20805;-46
2023/05/30 10:32:41;;;;;;;9.60;8.83;;;30.90;16.70;;;;;;4795487;29;20435;-43
2023/05/30 10:35:14;;;;;;;13.83;13.13;;;31.10;16.30;;;;;;4795671;29;20461;-48
2023/05/30 10:37:41;;;;;;;11.40;10.90;;;31.40;15.70;;;;;;4795187;29;20567;-44
2023/05/30 10:40:36;;;;;;;11.27;10.67;;;31.70;15.40;;;;;;4795300;29;20733;-44
2023/05/30 10:43:23;;;;;;;11.23;10.63;;;31.90;15.80;;;;;;4793924;29;20530;-45
2023/05/30 10:46:07;;;;;;;10.17;9.67;;;32.10;14.70;;;;;;4795278;29;20444;-44
2023/05/30 10:48:59;;;;;;;11.80;11.20;;;31.80;14.10;;;;;;4795561;29;20820;-45
2023/05/30 10:51:25;;;;;;;9.97;9.47;;;31.20;14.90;;;;;;4795637;29;20614;-47
2023/05/30 10:53:51;;;;;;;11.60;10.90;;;31.30;14.50;;;;;;4794619;29;20444;-45
2023/05/30 10:56:29;;;;;;;10.83;10.20;;;31.30;14.80;;;;;;4795289;29;20639;-43
2023/05/30 10:58:56;;;;;;;11.60;11.00;;;31.80;14.50;;;;;;4795533;29;20588;-43
2023/05/30 11:01:23;;;;;;;11.00;10.50;;;32.30;14.40;;;;;;4794901;29;20459;-44
2023/05/30 11:03:54;;;;;;;10.83;10.13;;;32.50;14.10;;;;;;4794820;29;21100;-47
2023/05/30 11:06:20;;;;;;;10.93;10.43;;;32.40;13.80;;;;;;4794679;29;20436;-47
2023/05/30 11:08:46;;;;;;;10.47;10.07;;;32.30;14.10;;;;;;4795445;29;20939;-47
2023/05/30 11:11:19;;;;;;;10.67;10.27;;;32.40;13.80;;;;;;4795322;29;20436;-45
2023/05/30 11:13:48;;;;;;;10.27;9.77;;;32.50;12.70;;;;;;4793263;29;20206;-45
2023/05/30 11:16:24;;;;;;;10.40;9.80;;;32.90;12.70;;;;;;4793714;29;20797;-44
2023/05/30 11:18:53;;;;;;;10.80;10.30;;;32.90;12.40;;;;;;4794540;29;20516;-46
2023/05/30 11:21:56;;;;;;;11.10;10.60;;;32.90;13.20;;;;;;4794835;29;20432;-45
2023/05/30 11:24:26;;;;;;;11.87;11.00;;;33.30;13.10;;;;;;4794317;29;20591;-43
2023/05/30 11:27:06;;;;;;;11.20;10.70;;;33.50;12.20;;;;;;4794514;29;20426;-42
2023/05/30 11:29:43;;;;;;;10.10;9.70;;;33.50;12.40;;;;;;4794418;29;20428;-44
2023/05/30 11:32:10;;;;;;;10.90;10.43;;;33.30;12.80;;;;;;4794202;29;20534;-44
2023/05/30 11:34:37;;;;;;;11.20;10.70;;;33.70;12.00;;;;;;4794489;29;20547;-46
2023/05/30 11:37:03;;;;;;;11.37;10.83;;;34.20;11.90;;;;;;4794255;29;20431;-45
2023/05/30 11:39:33;;;;;;;9.50;9.10;;;34.50;11.60;;;;;;4794235;29;21286;-47
2023/05/30 11:42:00;;;;;;;11.30;10.60;;;34.40;11.70;;;;;;4794402;29;20535;-46
2023/05/30 11:44:26;;;;;;;9.93;9.53;;;34.60;11.50;;;;;;4807754;29;20432;-46
2023/05/30 11:47:07;;;;;;;9.67;9.27;;;34.90;9.70;;;;;;4793732;29;20447;-45
2023/05/30 11:49:33;;;;;;;11.13;10.53;;;34.60;9.70;;;;;;4793788;29;20278;-45
2023/05/30 11:51:59;;;;;;;10.90;10.30;;;34.60;10.30;;;;;;4794034;29;20473;-48
2023/05/30 11:54:25;;;;;;;10.77;9.97;;;34.60;10.50;;;;;;4794057;29;20435;-44
2023/05/30 11:56:51;;;;;;;11.03;10.40;;;34.30;10.40;;;;;;4794114;29;20513;-43
2023/05/30 11:59:21;;;;;;;10.90;10.40;;;34.40;10.70;;;;;;4793874;29;20983;-50
2023/05/30 12:01:56;;;;;;;10.47;10.07;;;34.30;10.70;;;;;;4793782;29;20191;-47
2023/05/30 12:04:22;;;;;;;10.60;10.20;;;34.20;11.10;;;;;;4793838;29;20427;-43
2023/05/30 12:06:48;;;;;;;11.20;10.67;;;34.40;11.20;;;;;;4793521;29;20416;-48
2023/05/30 12:09:14;;;;;;;10.97;10.50;;;34.60;11.30;;;;;;4793244;29;20471;-45
2023/05/30 12:11:55;;;;;;;11.63;11.03;;;34.60;11.00;;;;;;4794151;29;20439;-43
2023/05/30 12:14:27;;;;;;;10.93;10.43;;;35.10;10.50;;;;;;4792601;29;20195;-43
2023/05/30 12:16:56;;;;;;;10.93;10.50;;;35.20;10.90;;;;;;4794147;29;20923;-46
2023/05/30 12:19:29;;;;;;;9.90;9.50;;;35.50;10.70;;;;;;4793613;29;20439;-45
2023/05/30 12:21:55;;;;;;;10.40;9.70;;;35.70;9.70;;;;;;4796336;29;20487;-47
2023/05/30 12:24:25;;;;;;;10.80;10.40;;;35.80;9.90;;;;;;4812034;29;20533;-47
2023/05/30 12:26:56;;;;;;;11.20;10.70;;;36.00;9.10;;;;;;4811193;29;20449;-46
2023/05/30 12:29:25;;;;;;;11.50;10.90;;;35.90;9.20;;;;;;4811340;29;20474;-50
2023/05/30 12:31:52;;;;;;;10.50;10.10;;;35.70;9.70;;;;;;4811569;29;20986;-44
2023/05/30 12:34:19;;;;;;;10.80;10.30;;;35.70;9.40;;;;;;4811822;29;20407;-44